This is the latest recevied weather packets stored in our database for station/object VK2KGV-15. If no packets are shown the sender has not sent any weather packets the latest 1 day(s).
| Time | Temp. | Humidity | Pressure | Rain* | Wind** | Luminosity | Snow |
|---|---|---|---|---|---|---|---|
| 1778063001 | 12.78° C | 81% | 1018.4 hPa | 0.25 mm | 0 m/s | - | - |
| 1778059382 | 15° C | 76% | 1017.9 hPa | 0.25 mm | 0 m/s | - | - |
| 1778057573 | 16.11° C | 72% | 1017.6 hPa | 0.25 mm | 0 m/s | - | - |
| 1778054557 | 18.89° C | 65% | 1016.7 hPa | 0.25 mm | 0 m/s | - | - |
| 1778050938 | 21.11° C | 60% | 1016 hPa | 0.25 mm | 0 m/s | - | - |
| 1778049732 | 22.22° C | 59% | 1015.8 hPa | 0.25 mm | 0.45 m/s, 270° | - | - |
| 1778049129 | 22.22° C | 58% | 1015.6 hPa | 0.25 mm | 0.45 m/s, 270° | - | - |
| 1778046717 | 23.33° C | 54% | 1015.5 hPa | 0.25 mm | 0.45 m/s, 315° | - | - |
| 1778044907 | 24.44° C | 50% | 1015.4 hPa | 0.25 mm | 0.89 m/s, 294° | - | - |
| 1778042495 | 24.44° C | 50% | 1015.5 hPa | 0.25 mm | 1.34 m/s, 287° | - | - |
| 1778041289 | 25° C | 49% | 1015.5 hPa | 0.25 mm | 0.89 m/s, 306° | - | - |
| 1778040082 | 25° C | 50% | 1015.6 hPa | 0.25 mm | 1.79 m/s, 310° | - | - |
| 1778038876 | 25° C | 51% | 1015.8 hPa | 0.25 mm | 1.34 m/s, 317° | - | - |
| 1778037670 | 25° C | 53% | 1015.9 hPa | 0.25 mm | 0.89 m/s, 325° | - | - |
| 1778036464 | 24.44° C | 56% | 1016.2 hPa | 0.25 mm | 0.45 m/s, 317° | - | - |
| 1778034655 | 24.44° C | 57% | 1016.6 hPa | 0.25 mm | 1.34 m/s, 310° | - | - |
| 1778034051 | 23.89° C | 59% | 1016.8 hPa | 0.25 mm | 0.89 m/s, 303° | - | - |
| 1778032845 | 24.44° C | 59% | 1017.1 hPa | 0.25 mm | 1.34 m/s, 279° | - | - |
| 1778031036 | 21.67° C | 71% | 1017.9 hPa | 0.25 mm | 0.45 m/s, 12° | - | - |
| 1778030433 | 20.56° C | 71% | 1018.2 hPa | 0.25 mm | 1.34 m/s, 277° | - | - |
| 1778027417 | 21.11° C | 72% | 1018.6 hPa | 0.25 mm | 0.89 m/s, 35° | - | - |
| 1778026814 | 21.11° C | 71% | 1018.7 hPa | 0.25 mm | 0.45 m/s, 37° | - | - |
| 1778026211 | 21.67° C | 71% | 1018.6 hPa | 0.25 mm | 0.89 m/s, 18° | - | - |
| 1778024401 | 20.56° C | 78% | 1019 hPa | 0.25 mm | 0 m/s | - | - |
| 1778021989 | 20.56° C | 78% | 1019 hPa | 0.25 mm | 0.89 m/s, 112° | - | - |
* Rain since midnight (hover to see other rain measurements)
** Current wind speed in m/s (hover to see current wind gust speed)